createdAt,value
2018-06-23T00:01:13.091Z,13.55
2018-06-23T00:03:41.461Z,13.33
2018-06-23T00:06:09.809Z,13.37
2018-06-23T00:08:38.203Z,13.37
2018-06-23T00:11:06.605Z,13.23
2018-06-23T00:13:35.166Z,13.37
2018-06-23T00:16:03.669Z,13.35
2018-06-23T00:18:32.048Z,13.39
2018-06-23T00:21:00.436Z,13.53
2018-06-23T00:23:28.887Z,13.48
2018-06-23T00:26:02.519Z,13.33
2018-06-23T00:28:30.935Z,13.17
2018-06-23T00:30:59.257Z,13.34
2018-06-23T00:33:27.566Z,13.20
2018-06-23T00:35:55.901Z,12.94
2018-06-23T00:38:24.223Z,13.03
2018-06-23T00:40:52.560Z,12.91
2018-06-23T00:43:20.942Z,13.03
2018-06-23T00:45:49.310Z,12.97
2018-06-23T00:48:17.646Z,13.03
2018-06-23T00:50:46.013Z,12.89
2018-06-23T00:53:14.349Z,12.85
2018-06-23T00:55:42.672Z,12.76
2018-06-23T00:58:11.210Z,12.86
2018-06-23T01:00:39.489Z,12.93
2018-06-23T01:03:07.821Z,12.90
2018-06-23T01:05:36.165Z,12.80
2018-06-23T01:08:04.709Z,12.78
2018-06-23T01:10:33.186Z,12.74
2018-06-23T01:13:01.526Z,12.77
2018-06-23T01:15:30.006Z,12.71
2018-06-23T01:17:58.333Z,12.64
2018-06-23T01:20:26.626Z,12.69
2018-06-23T01:22:55.042Z,12.87
2018-06-23T01:25:23.492Z,13.08
2018-06-23T01:27:51.814Z,13.29
2018-06-23T01:30:20.329Z,13.29
2018-06-23T01:32:48.732Z,13.10
2018-06-23T01:35:17.030Z,12.58
2018-06-23T01:37:45.442Z,12.64
2018-06-23T01:40:13.770Z,12.72
2018-06-23T01:42:42.195Z,12.59
2018-06-23T01:45:10.583Z,12.36
2018-06-23T01:47:38.946Z,12.36
2018-06-23T01:50:07.338Z,12.27
2018-06-23T01:52:35.843Z,12.34
2018-06-23T01:55:04.213Z,12.23
2018-06-23T01:57:32.799Z,12.05
2018-06-23T02:00:01.181Z,12.17
2018-06-23T02:02:29.594Z,12.10
2018-06-23T02:04:58.024Z,12.07
2018-06-23T02:07:26.366Z,12.02
2018-06-23T02:09:54.742Z,12.23
2018-06-23T02:12:23.125Z,12.24
2018-06-23T02:14:57.383Z,12.13
2018-06-23T02:17:30.890Z,12.05
2018-06-23T02:22:08.587Z,12.13
2018-06-23T02:24:42.103Z,12.05
2018-06-23T02:27:15.783Z,12.16
2018-06-23T02:29:49.501Z,12.28
2018-06-23T02:32:23.115Z,12.10
2018-06-23T02:34:56.742Z,12.13
2018-06-23T02:37:25.282Z,12.24
2018-06-23T02:39:53.732Z,12.06
2018-06-23T02:42:22.229Z,11.90
2018-06-23T02:44:50.642Z,11.74
2018-06-23T02:47:19.043Z,11.83
2018-06-23T02:49:47.327Z,11.69
2018-06-23T02:52:15.748Z,11.70
2018-06-23T02:54:44.122Z,11.74
2018-06-23T02:57:12.525Z,11.67
2018-06-23T02:59:40.969Z,11.79
2018-06-23T03:02:09.396Z,11.81
2018-06-23T03:04:37.825Z,11.88
2018-06-23T03:07:06.391Z,12.07
2018-06-23T03:09:34.872Z,12.01
2018-06-23T03:12:03.244Z,11.99
2018-06-23T03:14:31.628Z,12.01
2018-06-23T03:17:00.073Z,12.10
2018-06-23T03:19:28.441Z,12.05
2018-06-23T03:21:56.807Z,12.01
2018-06-23T03:24:25.278Z,11.94
2018-06-23T03:26:53.665Z,11.88
2018-06-23T03:29:22.097Z,11.97
2018-06-23T03:31:50.483Z,11.98
2018-06-23T03:34:18.886Z,12.13
2018-06-23T03:36:47.208Z,12.44
2018-06-23T03:39:15.581Z,12.72
2018-06-23T03:41:43.956Z,12.84
2018-06-23T03:44:12.325Z,12.96
2018-06-23T03:46:40.660Z,13.05
2018-06-23T03:49:09.037Z,13.00
2018-06-23T03:51:37.535Z,13.09
2018-06-23T03:54:06.014Z,13.15
2018-06-23T03:56:34.376Z,13.20
2018-06-23T03:59:02.773Z,13.18
2018-06-23T04:01:31.164Z,13.03
2018-06-23T04:03:59.643Z,12.88
2018-06-23T04:06:27.973Z,12.94
2018-06-23T04:08:56.390Z,12.93
2018-06-23T04:11:24.993Z,12.90
2018-06-23T04:13:53.370Z,12.85
2018-06-23T04:16:21.827Z,12.89
2018-06-23T04:18:58.109Z,13.23
2018-06-23T04:21:27.758Z,13.20
2018-06-23T04:23:56.223Z,13.20
2018-06-23T04:26:24.807Z,13.06
2018-06-23T04:28:53.210Z,12.90
2018-06-23T04:31:21.558Z,12.96
2018-06-23T04:33:50.038Z,13.08
2018-06-23T04:36:18.417Z,13.00
2018-06-23T04:38:47.181Z,13.09
2018-06-23T04:41:15.588Z,13.01
2018-06-23T04:43:44.026Z,12.82
2018-06-23T04:46:12.394Z,13.03
2018-06-23T04:48:40.775Z,12.94
2018-06-23T04:51:09.178Z,12.80
2018-06-23T04:53:45.584Z,12.79
2018-06-23T04:56:14.115Z,12.94
2018-06-23T04:58:42.446Z,12.75
2018-06-23T05:01:11.125Z,12.66
2018-06-23T05:03:39.557Z,12.60
2018-06-23T05:06:08.188Z,12.86
2018-06-23T05:08:47.592Z,13.39
2018-06-23T05:11:17.784Z,13.59
2018-06-23T05:13:46.245Z,13.68
2018-06-23T05:16:14.768Z,14.20
2018-06-23T05:18:43.090Z,13.86
2018-06-23T05:21:11.529Z,14.05
2018-06-23T05:23:40.091Z,14.00
2018-06-23T05:26:08.443Z,13.91
2018-06-23T05:28:36.813Z,14.10
2018-06-23T05:31:05.108Z,13.99
2018-06-23T05:33:33.686Z,13.94
2018-06-23T05:36:02.014Z,14.15
2018-06-23T05:38:30.335Z,14.20
2018-06-23T05:40:58.678Z,14.09
2018-06-23T05:43:27.089Z,14.12
2018-06-23T05:45:55.619Z,13.97
2018-06-23T05:48:23.982Z,13.90
2018-06-23T05:50:52.324Z,14.21
2018-06-23T05:53:20.876Z,14.42
2018-06-23T05:55:49.285Z,14.20
2018-06-23T05:58:17.684Z,14.65
2018-06-23T06:00:46.086Z,14.76
2018-06-23T06:03:14.599Z,14.91
2018-06-23T06:05:43.125Z,15.20
2018-06-23T06:08:11.462Z,15.15
2018-06-23T06:10:39.868Z,15.48
2018-06-23T06:13:08.301Z,15.26
2018-06-23T06:15:36.664Z,15.52
2018-06-23T06:18:05.048Z,15.41
2018-06-23T06:20:33.502Z,15.33
2018-06-23T06:23:01.919Z,15.96
2018-06-23T06:25:30.241Z,15.77
2018-06-23T06:27:58.565Z,16.01
2018-06-23T06:30:26.985Z,16.16
2018-06-23T06:32:55.365Z,16.57
2018-06-23T06:35:23.845Z,16.55
2018-06-23T06:37:52.251Z,16.61
2018-06-23T06:40:20.649Z,16.48
2018-06-23T06:42:49.108Z,16.26
2018-06-23T06:45:17.586Z,16.43
2018-06-23T06:47:45.952Z,17.08
2018-06-23T06:50:14.350Z,17.25
2018-06-23T06:52:42.719Z,16.78
2018-06-23T06:55:11.041Z,17.17
2018-06-23T06:57:39.455Z,16.89
2018-06-23T07:00:08.026Z,16.70
2018-06-23T07:02:36.425Z,17.40
2018-06-23T07:05:04.885Z,17.23
2018-06-23T07:07:33.270Z,17.07
2018-06-23T07:10:01.645Z,17.82
2018-06-23T07:12:30.035Z,17.84
2018-06-23T07:14:58.378Z,17.74
2018-06-23T07:17:26.742Z,17.87
2018-06-23T07:19:55.137Z,18.21
2018-06-23T07:22:23.680Z,18.82
2018-06-23T07:24:52.202Z,18.98
2018-06-23T07:27:20.752Z,19.31
2018-06-23T07:29:49.174Z,19.85
2018-06-23T07:32:17.689Z,19.66
2018-06-23T07:34:46.338Z,19.85
2018-06-23T07:37:14.762Z,19.04
2018-06-23T07:39:43.392Z,19.14
2018-06-23T07:42:11.886Z,19.81
2018-06-23T07:44:41.650Z,19.85
2018-06-23T07:47:10.099Z,20.27
2018-06-23T07:49:38.495Z,19.88
2018-06-23T07:52:07.043Z,20.35
2018-06-23T07:54:35.868Z,20.15
2018-06-23T07:57:04.756Z,21.24
2018-06-23T07:59:33.345Z,21.69
2018-06-23T08:02:01.887Z,22.03
2018-06-23T08:04:30.193Z,21.97
2018-06-23T08:06:58.617Z,21.99
2018-06-23T08:09:27.110Z,21.59
2018-06-23T08:11:55.480Z,20.94
2018-06-23T08:14:31.680Z,20.63
2018-06-23T08:17:00.152Z,20.39
2018-06-23T08:19:28.506Z,20.74
2018-06-23T08:21:57.049Z,21.14
2018-06-23T08:24:25.883Z,21.40
2018-06-23T08:26:54.435Z,20.82
2018-06-23T08:29:23.346Z,20.40
2018-06-23T08:31:51.808Z,20.63
2018-06-23T08:34:20.149Z,19.58
2018-06-23T08:36:48.586Z,20.08
2018-06-23T08:39:17.009Z,20.58
2018-06-23T08:41:45.541Z,21.31
2018-06-23T08:44:13.956Z,21.22
2018-06-23T08:46:42.413Z,20.84
2018-06-23T08:49:10.934Z,20.23
2018-06-23T08:51:39.341Z,20.70
2018-06-23T08:54:08.652Z,19.65
2018-06-23T08:56:38.059Z,20.12
2018-06-23T08:59:06.508Z,21.32
2018-06-23T09:01:35.882Z,22.06
2018-06-23T09:04:05.765Z,21.63
2018-06-23T09:06:35.520Z,21.54
2018-06-23T09:09:04.352Z,22.31
2018-06-23T09:11:32.822Z,21.77
2018-06-23T09:14:01.244Z,21.60
2018-06-23T09:16:29.754Z,21.40
2018-06-23T09:18:58.285Z,21.30
2018-06-23T09:21:26.686Z,20.93
2018-06-23T09:23:55.108Z,20.62
2018-06-23T09:26:23.587Z,20.21
2018-06-23T09:28:51.930Z,20.50
2018-06-23T09:31:20.448Z,20.81
2018-06-23T09:33:48.928Z,21.17
2018-06-23T09:36:17.448Z,21.61
2018-06-23T09:38:45.826Z,21.88
2018-06-23T09:41:14.350Z,21.02
2018-06-23T09:43:42.736Z,20.79
2018-06-23T09:46:11.123Z,20.77
2018-06-23T09:48:39.487Z,20.93
2018-06-23T09:51:08.068Z,21.07
2018-06-23T09:53:36.480Z,20.77
2018-06-23T09:56:05.130Z,20.50
2018-06-23T09:58:33.517Z,20.54
2018-06-23T10:01:01.973Z,20.82
2018-06-23T10:03:30.464Z,21.09
2018-06-23T10:05:58.751Z,21.17
2018-06-23T10:08:27.186Z,21.80
2018-06-23T10:13:25.136Z,23.20
2018-06-23T10:15:54.453Z,22.38
2018-06-23T10:18:22.974Z,22.10
2018-06-23T10:20:51.381Z,22.07
2018-06-23T10:23:20.406Z,20.89
2018-06-23T10:25:48.761Z,20.97
2018-06-23T10:28:17.455Z,21.66
2018-06-23T10:30:45.742Z,22.17
2018-06-23T10:33:14.134Z,22.80
2018-06-23T10:35:42.542Z,22.91
2018-06-23T10:38:11.445Z,23.47
2018-06-23T10:40:40.155Z,23.88
2018-06-23T10:43:08.575Z,23.54
2018-06-23T10:45:37.091Z,24.40
2018-06-23T10:48:05.512Z,22.99
2018-06-23T10:50:33.850Z,23.25
2018-06-23T10:53:02.352Z,23.23
2018-06-23T10:55:30.740Z,23.78
2018-06-23T10:57:59.114Z,23.91
2018-06-23T11:00:27.512Z,22.12
2018-06-23T11:02:55.880Z,22.30
2018-06-23T11:05:24.228Z,21.36
2018-06-23T11:07:52.571Z,21.40
2018-06-23T11:10:21.661Z,21.53
2018-06-23T11:12:50.041Z,22.02
2018-06-23T11:15:18.390Z,22.61
2018-06-23T11:17:46.720Z,22.30
2018-06-23T11:20:15.179Z,22.16
2018-06-23T11:22:43.544Z,21.72
2018-06-23T11:25:11.956Z,21.40
2018-06-23T11:27:40.391Z,21.96
2018-06-23T11:30:08.765Z,22.57
2018-06-23T11:32:37.272Z,22.43
2018-06-23T11:35:05.579Z,22.75
2018-06-23T11:37:33.980Z,24.18
2018-06-23T11:40:02.309Z,24.40
2018-06-23T11:42:30.666Z,25.08
2018-06-23T11:44:58.995Z,24.39
2018-06-23T11:47:27.313Z,22.30
2018-06-23T11:49:55.621Z,22.78
2018-06-23T11:52:24.296Z,23.01
2018-06-23T11:54:52.614Z,21.95
2018-06-23T11:57:22.027Z,23.71
2018-06-23T11:59:50.879Z,24.16
2018-06-23T12:02:19.221Z,23.74
2018-06-23T12:04:47.675Z,24.09
2018-06-23T12:07:19.649Z,26.12
2018-06-23T12:09:56.748Z,28.40
2018-06-23T12:12:25.196Z,28.90
2018-06-23T12:14:53.779Z,28.87
2018-06-23T12:17:22.188Z,29.51
2018-06-23T12:19:50.586Z,29.37
2018-06-23T12:22:19.093Z,29.20
2018-06-23T12:24:47.414Z,28.37
2018-06-23T12:27:15.850Z,30.24
2018-06-23T12:29:44.305Z,30.70
2018-06-23T12:32:12.736Z,31.71
2018-06-23T12:34:41.053Z,31.40
2018-06-23T12:37:09.450Z,30.21
2018-06-23T12:39:37.820Z,32.23
2018-06-23T12:42:06.114Z,34.73
2018-06-23T12:44:34.446Z,35.29
2018-06-23T12:47:02.968Z,33.32
2018-06-23T12:49:31.221Z,34.77
2018-06-23T12:51:59.569Z,34.25
2018-06-23T12:54:28.223Z,33.84
2018-06-23T12:56:56.537Z,31.33
2018-06-23T12:59:24.958Z,32.04
2018-06-23T13:01:53.313Z,32.68
2018-06-23T13:04:21.873Z,32.49
2018-06-23T13:06:50.349Z,31.70
2018-06-23T13:09:18.646Z,32.65
2018-06-23T13:11:47.106Z,33.08
2018-06-23T13:14:15.456Z,34.80
2018-06-23T13:16:43.859Z,33.95
2018-06-23T13:19:12.245Z,34.04
2018-06-23T13:21:40.763Z,32.45
2018-06-23T13:24:09.049Z,32.79
2018-06-23T13:26:37.360Z,33.20
2018-06-23T13:29:05.696Z,37.69
2018-06-23T13:31:33.996Z,38.09
2018-06-23T13:34:02.441Z,38.72
2018-06-23T13:36:31.003Z,39.14
2018-06-23T13:38:59.354Z,35.89
2018-06-23T13:41:27.722Z,35.67
2018-06-23T13:43:56.069Z,37.01
2018-06-23T13:46:24.377Z,36.20
2018-06-23T13:48:52.685Z,38.55
2018-06-23T13:51:20.984Z,37.09
2018-06-23T13:53:49.357Z,38.55
2018-06-23T13:56:17.724Z,39.33
2018-06-23T13:58:46.002Z,39.10
2018-06-23T14:01:14.314Z,36.92
2018-06-23T14:03:42.612Z,37.75
2018-06-23T14:06:11.071Z,37.50
2018-06-23T14:08:39.536Z,37.50
2018-06-23T14:11:07.858Z,35.30
2018-06-23T14:13:36.292Z,37.96
2018-06-23T14:16:04.658Z,39.17
2018-06-23T14:18:32.919Z,39.51
2018-06-23T14:21:07.412Z,39.61
2018-06-23T14:23:35.893Z,38.42
2018-06-23T14:26:04.496Z,37.05
2018-06-23T14:28:32.941Z,37.61
2018-06-23T14:31:01.274Z,36.83
2018-06-23T14:33:29.697Z,37.99
2018-06-23T14:35:58.006Z,35.50
2018-06-23T14:38:26.482Z,33.63
2018-06-23T14:40:54.796Z,33.20
2018-06-23T14:43:23.068Z,32.49
2018-06-23T14:45:51.587Z,32.06
2018-06-23T14:48:19.896Z,34.90
2018-06-23T14:50:48.295Z,34.40
2018-06-23T14:53:16.648Z,37.81
2018-06-23T14:55:45.105Z,38.06
2018-06-23T14:58:13.494Z,38.12
2018-06-23T15:00:41.904Z,36.22
2018-06-23T15:03:10.217Z,39.34
2018-06-23T15:05:38.493Z,36.75
2018-06-23T15:08:17.938Z,37.83
2018-06-23T15:10:57.440Z,36.88
2018-06-23T15:13:25.947Z,37.37
2018-06-23T15:15:54.247Z,38.31
2018-06-23T15:18:22.569Z,38.06
2018-06-23T15:20:51.040Z,37.22
2018-06-23T15:23:19.375Z,35.46
2018-06-23T15:25:47.719Z,37.42
2018-06-23T15:28:15.984Z,35.68
2018-06-23T15:30:44.341Z,37.06
2018-06-23T15:33:12.598Z,34.95
2018-06-23T15:35:40.933Z,37.05
2018-06-23T15:38:09.449Z,34.48
2018-06-23T15:40:37.718Z,33.63
2018-06-23T15:43:06.077Z,35.25
2018-06-23T15:45:34.443Z,37.90
2018-06-23T15:48:02.744Z,37.83
2018-06-23T15:50:31.546Z,37.77
2018-06-23T15:52:59.887Z,36.18
2018-06-23T15:55:28.227Z,35.95
2018-06-23T15:57:56.611Z,36.86
2018-06-23T16:00:24.913Z,36.41
2018-06-23T16:02:53.210Z,33.66
2018-06-23T16:05:21.600Z,36.70
2018-06-23T16:07:49.973Z,34.64
2018-06-23T16:10:24.919Z,36.96
2018-06-23T16:12:54.218Z,36.30
2018-06-23T16:15:22.739Z,36.98
2018-06-23T16:17:51.273Z,34.47
2018-06-23T16:20:19.562Z,34.64
2018-06-23T16:22:48.277Z,32.12
2018-06-23T16:25:17.003Z,32.87
2018-06-23T16:27:45.339Z,32.33
2018-06-23T16:30:13.789Z,29.98
2018-06-23T16:32:42.268Z,29.74
2018-06-23T16:35:10.832Z,30.26
2018-06-23T16:37:39.096Z,30.75
2018-06-23T16:40:07.467Z,29.46
2018-06-23T16:42:35.738Z,28.68
2018-06-23T16:45:04.166Z,26.25
2018-06-23T16:47:32.713Z,25.53
2018-06-23T16:50:01.202Z,24.75
2018-06-23T16:52:29.714Z,24.24
2018-06-23T16:54:58.182Z,24.59
2018-06-23T16:57:26.500Z,24.38
2018-06-23T16:59:54.811Z,24.59
2018-06-23T17:02:23.235Z,24.03
2018-06-23T17:04:51.727Z,24.14
2018-06-23T17:07:20.111Z,24.38
2018-06-23T17:09:48.505Z,23.73
2018-06-23T17:12:16.886Z,23.91
2018-06-23T17:14:45.299Z,23.89
2018-06-23T17:17:13.663Z,23.77
2018-06-23T17:19:42.016Z,24.84
2018-06-23T17:22:10.366Z,25.92
2018-06-23T17:24:38.832Z,26.82
2018-06-23T17:27:07.134Z,25.40
2018-06-23T17:29:35.568Z,24.40
2018-06-23T17:32:04.154Z,24.03
2018-06-23T17:34:32.768Z,23.55
2018-06-23T17:37:01.163Z,22.86
2018-06-23T17:39:29.630Z,23.16
2018-06-23T17:41:58.173Z,23.30
2018-06-23T17:44:26.542Z,23.54
2018-06-23T17:46:55.171Z,23.41
2018-06-23T17:49:23.638Z,24.24
2018-06-23T17:51:52.076Z,24.14
2018-06-23T17:54:20.465Z,23.99
2018-06-23T17:56:48.765Z,24.09
2018-06-23T17:59:17.256Z,23.49
2018-06-23T18:01:45.701Z,22.98
2018-06-23T18:04:14.009Z,22.79
2018-06-23T18:06:42.356Z,22.13
2018-06-23T18:09:11.150Z,22.74
2018-06-23T18:11:40.453Z,22.64
2018-06-23T18:14:10.140Z,22.46
2018-06-23T18:16:38.596Z,21.70
2018-06-23T18:19:07.455Z,21.40
2018-06-23T18:21:35.801Z,21.08
2018-06-23T18:24:04.211Z,21.70
2018-06-23T18:26:32.611Z,21.53
2018-06-23T18:29:00.989Z,21.59
2018-06-23T18:31:29.335Z,21.34
2018-06-23T18:33:57.786Z,20.84
2018-06-23T18:36:26.182Z,21.15
2018-06-23T18:38:54.557Z,20.96
2018-06-23T18:41:22.869Z,20.89
2018-06-23T18:43:51.227Z,20.83
2018-06-23T18:46:19.645Z,20.60
2018-06-23T18:48:48.066Z,20.37
2018-06-23T18:51:16.608Z,20.86
2018-06-23T18:53:44.965Z,20.91
2018-06-23T18:56:13.344Z,20.56
2018-06-23T18:58:41.744Z,20.33
2018-06-23T19:01:10.282Z,20.16
2018-06-23T19:03:38.655Z,20.15
2018-06-23T19:06:07.033Z,19.73
2018-06-23T19:08:38.295Z,19.46
2018-06-23T19:11:06.753Z,19.55
2018-06-23T19:13:35.110Z,19.10
2018-06-23T19:16:03.338Z,19.33
2018-06-23T19:18:31.696Z,19.50
2018-06-23T19:21:00.084Z,19.26
2018-06-23T19:23:29.308Z,19.35
2018-06-23T19:25:57.647Z,18.86
2018-06-23T19:28:26.047Z,19.03
2018-06-23T19:30:54.337Z,18.96
2018-06-23T19:33:22.835Z,18.83
2018-06-23T19:35:51.269Z,18.77
2018-06-23T19:38:19.654Z,18.87
2018-06-23T19:40:48.060Z,18.75
2018-06-23T19:43:16.397Z,18.61
2018-06-23T19:45:44.869Z,18.77
2018-06-23T19:48:13.359Z,18.59
2018-06-23T19:50:41.801Z,18.45
2018-06-23T19:53:10.178Z,18.29
2018-06-23T19:55:38.626Z,18.68
2018-06-23T19:58:07.109Z,18.72
2018-06-23T20:00:35.528Z,18.63
2018-06-23T20:03:15.701Z,18.61
2018-06-23T20:05:46.568Z,18.88
2018-06-23T20:08:15.275Z,18.38
2018-06-23T20:14:03.396Z,18.84
2018-06-23T20:16:32.192Z,18.40
2018-06-23T20:19:00.737Z,18.75
2018-06-23T20:21:29.191Z,18.64
2018-06-23T20:23:57.640Z,18.40
2018-06-23T20:26:25.965Z,18.46
2018-06-23T20:28:55.014Z,18.50
2018-06-23T20:31:23.488Z,18.54
2018-06-23T20:33:52.007Z,18.44
2018-06-23T20:36:20.447Z,18.07
2018-06-23T20:38:48.814Z,18.29
2018-06-23T20:41:17.219Z,18.15
2018-06-23T20:43:45.706Z,18.23
2018-06-23T20:46:14.134Z,18.11
2018-06-23T20:48:42.526Z,17.52
2018-06-23T20:51:11.004Z,17.43
2018-06-23T20:53:39.350Z,17.65
2018-06-23T20:56:07.729Z,17.54
2018-06-23T20:58:36.068Z,17.55
2018-06-23T21:01:04.685Z,17.36
2018-06-23T21:03:33.223Z,17.37
2018-06-23T21:06:01.553Z,17.44
2018-06-23T21:08:29.896Z,17.40
2018-06-23T21:10:58.216Z,17.34
2018-06-23T21:13:26.524Z,17.24
2018-06-23T21:15:55.072Z,17.10
2018-06-23T21:18:23.488Z,17.24
2018-06-23T21:20:51.856Z,17.34
2018-06-23T21:23:20.288Z,17.20
2018-06-23T21:25:48.753Z,17.16
2018-06-23T21:28:17.066Z,17.24
2018-06-23T21:30:45.677Z,17.20
2018-06-23T21:33:14.169Z,17.08
2018-06-23T21:35:42.528Z,16.94
2018-06-23T21:38:10.911Z,16.87
2018-06-23T21:40:39.252Z,17.10
2018-06-23T21:43:07.638Z,17.04
2018-06-23T21:48:38.860Z,17.04
2018-06-23T21:51:07.470Z,17.09
2018-06-23T21:53:35.963Z,17.25
2018-06-23T21:56:04.526Z,17.11
2018-06-23T21:58:32.961Z,17.19
2018-06-23T22:01:01.361Z,17.17
2018-06-23T22:03:29.861Z,16.99
2018-06-23T22:05:58.458Z,17.31
2018-06-23T22:08:26.970Z,17.19
2018-06-23T22:10:55.377Z,17.02
2018-06-23T22:13:23.831Z,17.26
2018-06-23T22:15:52.256Z,17.34
2018-06-23T22:18:20.611Z,16.99
2018-06-23T22:20:49.299Z,17.07
2018-06-23T22:23:17.674Z,17.26
2018-06-23T22:25:46.218Z,17.09
2018-06-23T22:28:14.657Z,17.43
2018-06-23T22:30:43.082Z,17.21
2018-06-23T22:33:11.607Z,17.14
2018-06-23T22:35:40.120Z,17.24
2018-06-23T22:38:08.529Z,17.01
2018-06-23T22:40:36.844Z,17.19
2018-06-23T22:43:05.237Z,17.24
2018-06-23T22:45:33.660Z,17.19
2018-06-23T22:48:02.118Z,17.10
2018-06-23T22:50:30.777Z,17.10
2018-06-23T22:52:59.261Z,16.96
2018-06-23T22:55:27.545Z,17.26
2018-06-23T22:57:55.921Z,17.08
2018-06-23T23:00:24.445Z,17.19
2018-06-23T23:02:52.860Z,17.29
2018-06-23T23:05:21.251Z,17.17
2018-06-23T23:07:49.854Z,17.10
2018-06-23T23:10:18.129Z,17.11
2018-06-23T23:12:46.483Z,16.98
2018-06-23T23:15:14.787Z,17.16
2018-06-23T23:17:43.142Z,17.03
2018-06-23T23:20:11.430Z,16.94
2018-06-23T23:22:39.766Z,16.76
2018-06-23T23:25:08.280Z,16.83
2018-06-23T23:27:36.624Z,16.73
2018-06-23T23:30:09.305Z,16.67
2018-06-23T23:32:42.249Z,16.65
2018-06-23T23:35:10.792Z,16.52
2018-06-23T23:37:39.126Z,16.56
2018-06-23T23:40:07.470Z,16.54
2018-06-23T23:42:35.840Z,16.55
2018-06-23T23:45:04.310Z,16.32
2018-06-23T23:47:32.830Z,16.18
2018-06-23T23:50:03.073Z,16.22
2018-06-23T23:52:33.742Z,16.09
2018-06-23T23:55:02.090Z,16.04
2018-06-23T23:57:30.434Z,16.00
2018-06-23T23:59:58.756Z,15.80
